sensor_id;sensor_type;location;lat;lon;timestamp;temperature;humidity
19930;DHT22;10127;47.780;9.606;2023-04-19T00:01:20;10.00;99.90
19930;DHT22;10127;47.780;9.606;2023-04-19T00:03:45;10.00;99.90
19930;DHT22;10127;47.780;9.606;2023-04-19T00:06:11;10.00;99.90
19930;DHT22;10127;47.780;9.606;2023-04-19T00:08:39;10.00;99.90
19930;DHT22;10127;47.780;9.606;2023-04-19T00:11:06;10.00;99.90
19930;DHT22;10127;47.780;9.606;2023-04-19T00:13:32;10.00;99.90
19930;DHT22;10127;47.780;9.606;2023-04-19T00:15:57;10.00;99.90
19930;DHT22;10127;47.780;9.606;2023-04-19T00:18:23;10.00;99.90
19930;DHT22;10127;47.780;9.606;2023-04-19T00:20:49;10.10;99.90
19930;DHT22;10127;47.780;9.606;2023-04-19T00:23:14;10.10;99.90
19930;DHT22;10127;47.780;9.606;2023-04-19T00:25:40;10.10;99.90
19930;DHT22;10127;47.780;9.606;2023-04-19T00:28:05;10.10;99.90
19930;DHT22;10127;47.780;9.606;2023-04-19T00:30:31;10.10;99.90
19930;DHT22;10127;47.780;9.606;2023-04-19T00:32:56;10.10;99.90
19930;DHT22;10127;47.780;9.606;2023-04-19T00:35:22;10.10;99.90
19930;DHT22;10127;47.780;9.606;2023-04-19T00:37:47;10.10;99.90
19930;DHT22;10127;47.780;9.606;2023-04-19T00:40:13;10.00;99.90
19930;DHT22;10127;47.780;9.606;2023-04-19T00:42:39;10.00;99.90
19930;DHT22;10127;47.780;9.606;2023-04-19T00:45:05;10.00;99.90
19930;DHT22;10127;47.780;9.606;2023-04-19T00:47:30;10.00;99.90
19930;DHT22;10127;47.780;9.606;2023-04-19T00:49:56;10.00;99.90
19930;DHT22;10127;47.780;9.606;2023-04-19T00:52:22;10.00;99.90
19930;DHT22;10127;47.780;9.606;2023-04-19T00:54:48;10.00;99.90
19930;DHT22;10127;47.780;9.606;2023-04-19T00:57:14;10.00;99.90
19930;DHT22;10127;47.780;9.606;2023-04-19T00:59:49;10.20;99.90
19930;DHT22;10127;47.780;9.606;2023-04-19T01:02:15;10.20;99.90
19930;DHT22;10127;47.780;9.606;2023-04-19T01:04:41;10.20;99.90
19930;DHT22;10127;47.780;9.606;2023-04-19T01:07:07;10.20;99.90
19930;DHT22;10127;47.780;9.606;2023-04-19T01:09:33;10.30;99.90
19930;DHT22;10127;47.780;9.606;2023-04-19T01:12:00;10.30;99.90
19930;DHT22;10127;47.780;9.606;2023-04-19T01:14:26;10.40;99.90
19930;DHT22;10127;47.780;9.606;2023-04-19T01:16:51;10.40;99.90
19930;DHT22;10127;47.780;9.606;2023-04-19T01:19:17;10.40;99.90
19930;DHT22;10127;47.780;9.606;2023-04-19T01:21:43;10.40;99.90
19930;DHT22;10127;47.780;9.606;2023-04-19T01:24:08;10.30;99.90
19930;DHT22;10127;47.780;9.606;2023-04-19T01:26:34;10.30;99.90
19930;DHT22;10127;47.780;9.606;2023-04-19T01:29:06;10.30;99.90
19930;DHT22;10127;47.780;9.606;2023-04-19T01:31:32;10.40;99.90
19930;DHT22;10127;47.780;9.606;2023-04-19T01:33:57;10.30;99.90
19930;DHT22;10127;47.780;9.606;2023-04-19T01:36:23;10.30;99.90
19930;DHT22;10127;47.780;9.606;2023-04-19T01:38:49;10.30;99.90
19930;DHT22;10127;47.780;9.606;2023-04-19T01:41:14;10.30;99.90
19930;DHT22;10127;47.780;9.606;2023-04-19T01:43:40;10.30;99.90
19930;DHT22;10127;47.780;9.606;2023-04-19T01:46:05;10.40;99.90
19930;DHT22;10127;47.780;9.606;2023-04-19T01:48:31;10.30;99.90
19930;DHT22;10127;47.780;9.606;2023-04-19T01:50:56;10.30;99.90
19930;DHT22;10127;47.780;9.606;2023-04-19T01:53:22;10.30;99.90
19930;DHT22;10127;47.780;9.606;2023-04-19T01:55:48;10.30;99.90
19930;DHT22;10127;47.780;9.606;2023-04-19T01:58:13;10.40;99.90
19930;DHT22;10127;47.780;9.606;2023-04-19T02:00:39;10.40;99.90
19930;DHT22;10127;47.780;9.606;2023-04-19T02:03:04;10.40;99.90
19930;DHT22;10127;47.780;9.606;2023-04-19T02:05:30;10.40;99.90
19930;DHT22;10127;47.780;9.606;2023-04-19T02:07:55;10.40;99.90
19930;DHT22;10127;47.780;9.606;2023-04-19T02:10:21;10.40;99.90
19930;DHT22;10127;47.780;9.606;2023-04-19T02:12:46;10.40;99.90
19930;DHT22;10127;47.780;9.606;2023-04-19T02:15:12;10.40;99.90
19930;DHT22;10127;47.780;9.606;2023-04-19T02:17:38;10.50;99.90
19930;DHT22;10127;47.780;9.606;2023-04-19T02:20:05;10.50;99.90
19930;DHT22;10127;47.780;9.606;2023-04-19T02:22:32;10.40;99.90
19930;DHT22;10127;47.780;9.606;2023-04-19T02:24:58;10.40;99.90
19930;DHT22;10127;47.780;9.606;2023-04-19T02:27:23;10.40;99.90
19930;DHT22;10127;47.780;9.606;2023-04-19T02:29:49;10.40;99.90
19930;DHT22;10127;47.780;9.606;2023-04-19T02:32:21;10.40;99.90
19930;DHT22;10127;47.780;9.606;2023-04-19T02:34:47;10.50;99.90
19930;DHT22;10127;47.780;9.606;2023-04-19T02:37:12;10.40;99.90
19930;DHT22;10127;47.780;9.606;2023-04-19T02:39:38;10.40;99.90
19930;DHT22;10127;47.780;9.606;2023-04-19T02:42:06;10.40;99.90
19930;DHT22;10127;47.780;9.606;2023-04-19T02:44:31;10.50;99.90
19930;DHT22;10127;47.780;9.606;2023-04-19T02:46:57;10.40;99.90
19930;DHT22;10127;47.780;9.606;2023-04-19T02:49:22;10.40;99.90
19930;DHT22;10127;47.780;9.606;2023-04-19T03:12:25;10.60;99.90
19930;DHT22;10127;47.780;9.606;2023-04-19T03:14:51;10.60;99.90
19930;DHT22;10127;47.780;9.606;2023-04-19T03:17:16;10.50;99.90
19930;DHT22;10127;47.780;9.606;2023-04-19T03:19:42;10.60;99.90
19930;DHT22;10127;47.780;9.606;2023-04-19T03:22:08;10.60;99.90
19930;DHT22;10127;47.780;9.606;2023-04-19T03:24:33;10.70;99.90
19930;DHT22;10127;47.780;9.606;2023-04-19T03:26:59;10.60;99.90
19930;DHT22;10127;47.780;9.606;2023-04-19T03:29:25;10.70;99.90
19930;DHT22;10127;47.780;9.606;2023-04-19T03:31:50;10.70;99.90
19930;DHT22;10127;47.780;9.606;2023-04-19T03:34:16;10.60;99.90
19930;DHT22;10127;47.780;9.606;2023-04-19T03:36:42;10.70;99.90
19930;DHT22;10127;47.780;9.606;2023-04-19T03:39:07;10.60;99.90
19930;DHT22;10127;47.780;9.606;2023-04-19T03:41:33;10.60;99.90
19930;DHT22;10127;47.780;9.606;2023-04-19T03:43:59;10.70;99.90
19930;DHT22;10127;47.780;9.606;2023-04-19T03:46:25;10.60;99.90
19930;DHT22;10127;47.780;9.606;2023-04-19T03:48:51;10.60;99.90
19930;DHT22;10127;47.780;9.606;2023-04-19T03:51:17;10.60;99.90
19930;DHT22;10127;47.780;9.606;2023-04-19T03:53:43;10.60;99.90
19930;DHT22;10127;47.780;9.606;2023-04-19T03:56:08;10.60;99.90
19930;DHT22;10127;47.780;9.606;2023-04-19T03:58:34;10.60;99.90
19930;DHT22;10127;47.780;9.606;2023-04-19T04:01:01;10.60;99.90
19930;DHT22;10127;47.780;9.606;2023-04-19T04:03:27;10.60;99.90
19930;DHT22;10127;47.780;9.606;2023-04-19T04:05:52;10.50;99.90
19930;DHT22;10127;47.780;9.606;2023-04-19T04:08:18;10.50;99.90
19930;DHT22;10127;47.780;9.606;2023-04-19T04:10:44;10.50;99.90
19930;DHT22;10127;47.780;9.606;2023-04-19T04:13:09;10.60;99.90
19930;DHT22;10127;47.780;9.606;2023-04-19T04:15:35;10.60;99.90
19930;DHT22;10127;47.780;9.606;2023-04-19T04:18:01;10.60;99.90
19930;DHT22;10127;47.780;9.606;2023-04-19T04:20:26;10.60;99.90
19930;DHT22;10127;47.780;9.606;2023-04-19T04:22:52;10.60;99.90
19930;DHT22;10127;47.780;9.606;2023-04-19T04:25:17;10.70;99.90
19930;DHT22;10127;47.780;9.606;2023-04-19T04:27:43;10.60;99.90
19930;DHT22;10127;47.780;9.606;2023-04-19T04:30:10;10.70;99.90
19930;DHT22;10127;47.780;9.606;2023-04-19T04:32:38;10.70;99.90
19930;DHT22;10127;47.780;9.606;2023-04-19T04:35:06;10.70;99.90
19930;DHT22;10127;47.780;9.606;2023-04-19T04:37:32;10.70;99.90
19930;DHT22;10127;47.780;9.606;2023-04-19T04:40:02;10.80;99.90
19930;DHT22;10127;47.780;9.606;2023-04-19T04:42:31;10.80;99.90
19930;DHT22;10127;47.780;9.606;2023-04-19T04:44:57;10.80;99.90
19930;DHT22;10127;47.780;9.606;2023-04-19T04:47:23;10.90;99.90
19930;DHT22;10127;47.780;9.606;2023-04-19T04:49:49;10.80;99.90
19930;DHT22;10127;47.780;9.606;2023-04-19T04:52:14;10.80;99.90
19930;DHT22;10127;47.780;9.606;2023-04-19T04:54:40;10.70;99.90
19930;DHT22;10127;47.780;9.606;2023-04-19T04:57:07;10.70;99.90
19930;DHT22;10127;47.780;9.606;2023-04-19T04:59:33;10.70;99.90
19930;DHT22;10127;47.780;9.606;2023-04-19T05:01:58;10.70;99.90
19930;DHT22;10127;47.780;9.606;2023-04-19T05:04:24;10.70;99.90
19930;DHT22;10127;47.780;9.606;2023-04-19T05:06:49;10.80;99.90
19930;DHT22;10127;47.780;9.606;2023-04-19T05:09:15;10.90;99.90
19930;DHT22;10127;47.780;9.606;2023-04-19T05:11:40;10.90;99.90
19930;DHT22;10127;47.780;9.606;2023-04-19T05:14:06;10.80;99.90
19930;DHT22;10127;47.780;9.606;2023-04-19T05:16:32;10.80;99.90
19930;DHT22;10127;47.780;9.606;2023-04-19T05:18:57;10.80;99.90
19930;DHT22;10127;47.780;9.606;2023-04-19T05:21:23;10.90;99.90
19930;DHT22;10127;47.780;9.606;2023-04-19T05:23:48;10.90;99.90
19930;DHT22;10127;47.780;9.606;2023-04-19T05:26:17;11.00;99.90
19930;DHT22;10127;47.780;9.606;2023-04-19T05:28:44;11.00;99.90
19930;DHT22;10127;47.780;9.606;2023-04-19T05:31:10;11.10;99.90
19930;DHT22;10127;47.780;9.606;2023-04-19T05:33:36;11.20;99.90
19930;DHT22;10127;47.780;9.606;2023-04-19T05:36:02;11.10;99.90
19930;DHT22;10127;47.780;9.606;2023-04-19T05:38:34;11.10;99.90
19930;DHT22;10127;47.780;9.606;2023-04-19T05:41:01;11.10;99.90
19930;DHT22;10127;47.780;9.606;2023-04-19T05:43:26;11.20;99.90
19930;DHT22;10127;47.780;9.606;2023-04-19T05:45:52;11.20;99.90
19930;DHT22;10127;47.780;9.606;2023-04-19T05:48:17;11.20;99.90
19930;DHT22;10127;47.780;9.606;2023-04-19T05:50:43;11.20;99.90
19930;DHT22;10127;47.780;9.606;2023-04-19T05:53:09;11.30;99.90
19930;DHT22;10127;47.780;9.606;2023-04-19T05:55:34;11.30;99.90
19930;DHT22;10127;47.780;9.606;2023-04-19T05:58:00;11.20;99.90
19930;DHT22;10127;47.780;9.606;2023-04-19T06:00:26;11.30;99.90
19930;DHT22;10127;47.780;9.606;2023-04-19T06:02:52;11.20;99.90
19930;DHT22;10127;47.780;9.606;2023-04-19T06:05:18;11.10;99.90
19930;DHT22;10127;47.780;9.606;2023-04-19T06:07:44;11.10;99.90
19930;DHT22;10127;47.780;9.606;2023-04-19T06:10:10;10.90;99.90
19930;DHT22;10127;47.780;9.606;2023-04-19T06:12:37;10.90;99.90
19930;DHT22;10127;47.780;9.606;2023-04-19T06:15:02;10.90;99.90
19930;DHT22;10127;47.780;9.606;2023-04-19T06:17:28;10.80;99.90
19930;DHT22;10127;47.780;9.606;2023-04-19T06:19:54;10.90;99.90
19930;DHT22;10127;47.780;9.606;2023-04-19T06:22:20;10.70;99.90
19930;DHT22;10127;47.780;9.606;2023-04-19T06:24:46;10.80;99.90
19930;DHT22;10127;47.780;9.606;2023-04-19T06:27:13;10.90;99.90
19930;DHT22;10127;47.780;9.606;2023-04-19T06:29:39;10.90;99.90
19930;DHT22;10127;47.780;9.606;2023-04-19T06:32:05;11.10;99.90
19930;DHT22;10127;47.780;9.606;2023-04-19T06:34:30;11.20;99.90
19930;DHT22;10127;47.780;9.606;2023-04-19T06:36:56;11.20;99.90
19930;DHT22;10127;47.780;9.606;2023-04-19T06:39:21;11.10;99.90
19930;DHT22;10127;47.780;9.606;2023-04-19T06:41:47;11.30;99.90
19930;DHT22;10127;47.780;9.606;2023-04-19T06:44:12;11.40;99.90
19930;DHT22;10127;47.780;9.606;2023-04-19T06:46:38;11.40;99.90
19930;DHT22;10127;47.780;9.606;2023-04-19T06:49:05;11.50;99.90
19930;DHT22;10127;47.780;9.606;2023-04-19T06:51:32;11.60;99.90
19930;DHT22;10127;47.780;9.606;2023-04-19T06:53:57;11.60;99.90
19930;DHT22;10127;47.780;9.606;2023-04-19T06:59:11;11.80;99.90
19930;DHT22;10127;47.780;9.606;2023-04-19T07:01:37;11.80;99.90
19930;DHT22;10127;47.780;9.606;2023-04-19T07:04:02;11.60;99.90
19930;DHT22;10127;47.780;9.606;2023-04-19T07:06:28;11.60;99.90
19930;DHT22;10127;47.780;9.606;2023-04-19T07:08:54;11.70;99.90
19930;DHT22;10127;47.780;9.606;2023-04-19T07:11:19;11.90;99.90
19930;DHT22;10127;47.780;9.606;2023-04-19T07:13:45;12.00;99.90
19930;DHT22;10127;47.780;9.606;2023-04-19T07:16:11;12.10;99.90
19930;DHT22;10127;47.780;9.606;2023-04-19T07:18:38;12.10;99.90
19930;DHT22;10127;47.780;9.606;2023-04-19T07:21:03;12.10;99.90
19930;DHT22;10127;47.780;9.606;2023-04-19T07:23:29;12.10;99.90
19930;DHT22;10127;47.780;9.606;2023-04-19T07:25:55;12.10;99.90
19930;DHT22;10127;47.780;9.606;2023-04-19T07:28:20;12.10;99.90
19930;DHT22;10127;47.780;9.606;2023-04-19T07:30:46;12.00;99.90
19930;DHT22;10127;47.780;9.606;2023-04-19T07:33:11;11.90;99.90
19930;DHT22;10127;47.780;9.606;2023-04-19T07:35:40;12.00;99.90
19930;DHT22;10127;47.780;9.606;2023-04-19T07:38:06;12.10;99.90
19930;DHT22;10127;47.780;9.606;2023-04-19T07:40:31;12.30;99.90
19930;DHT22;10127;47.780;9.606;2023-04-19T07:42:57;12.30;99.90
19930;DHT22;10127;47.780;9.606;2023-04-19T07:45:23;12.50;99.90
19930;DHT22;10127;47.780;9.606;2023-04-19T07:47:48;12.60;99.90
19930;DHT22;10127;47.780;9.606;2023-04-19T07:50:14;12.60;99.90
19930;DHT22;10127;47.780;9.606;2023-04-19T07:52:40;12.60;99.90
19930;DHT22;10127;47.780;9.606;2023-04-19T07:55:06;12.70;99.90
19930;DHT22;10127;47.780;9.606;2023-04-19T07:57:33;12.80;99.90
19930;DHT22;10127;47.780;9.606;2023-04-19T07:59:58;13.10;99.90
19930;DHT22;10127;47.780;9.606;2023-04-19T08:02:25;13.20;99.90
19930;DHT22;10127;47.780;9.606;2023-04-19T08:04:52;13.10;99.90
19930;DHT22;10127;47.780;9.606;2023-04-19T08:07:17;13.20;99.90
19930;DHT22;10127;47.780;9.606;2023-04-19T08:09:43;13.30;99.90
19930;DHT22;10127;47.780;9.606;2023-04-19T08:12:08;13.50;99.90
19930;DHT22;10127;47.780;9.606;2023-04-19T08:14:34;13.60;99.90
19930;DHT22;10127;47.780;9.606;2023-04-19T08:17:00;13.60;99.90
19930;DHT22;10127;47.780;9.606;2023-04-19T08:19:26;13.40;99.90
19930;DHT22;10127;47.780;9.606;2023-04-19T08:21:51;13.50;99.90
19930;DHT22;10127;47.780;9.606;2023-04-19T08:24:17;13.60;99.90
19930;DHT22;10127;47.780;9.606;2023-04-19T08:26:42;13.70;99.90
19930;DHT22;10127;47.780;9.606;2023-04-19T08:29:08;13.90;99.90
19930;DHT22;10127;47.780;9.606;2023-04-19T08:31:33;13.90;99.90
19930;DHT22;10127;47.780;9.606;2023-04-19T08:33:59;13.80;99.90
19930;DHT22;10127;47.780;9.606;2023-04-19T08:36:25;13.60;99.90
19930;DHT22;10127;47.780;9.606;2023-04-19T08:38:52;13.20;99.90
19930;DHT22;10127;47.780;9.606;2023-04-19T08:41:18;13.00;99.90
19930;DHT22;10127;47.780;9.606;2023-04-19T08:43:44;13.10;99.90
19930;DHT22;10127;47.780;9.606;2023-04-19T08:46:10;13.40;99.90
19930;DHT22;10127;47.780;9.606;2023-04-19T08:48:37;13.60;99.90
19930;DHT22;10127;47.780;9.606;2023-04-19T08:51:03;13.60;99.90
19930;DHT22;10127;47.780;9.606;2023-04-19T08:53:37;13.50;99.90
19930;DHT22;10127;47.780;9.606;2023-04-19T08:56:04;13.50;99.90
19930;DHT22;10127;47.780;9.606;2023-04-19T08:58:32;13.60;99.90
19930;DHT22;10127;47.780;9.606;2023-04-19T09:00:57;13.70;99.90
19930;DHT22;10127;47.780;9.606;2023-04-19T09:03:23;13.40;99.90
19930;DHT22;10127;47.780;9.606;2023-04-19T09:05:48;13.30;99.90
19930;DHT22;10127;47.780;9.606;2023-04-19T09:08:26;13.60;99.90
19930;DHT22;10127;47.780;9.606;2023-04-19T09:10:58;13.70;99.90
19930;DHT22;10127;47.780;9.606;2023-04-19T09:13:25;13.60;99.90
19930;DHT22;10127;47.780;9.606;2023-04-19T09:15:51;13.80;99.90
19930;DHT22;10127;47.780;9.606;2023-04-19T09:18:18;13.70;99.90
19930;DHT22;10127;47.780;9.606;2023-04-19T09:20:45;13.90;99.90
19930;DHT22;10127;47.780;9.606;2023-04-19T09:23:16;13.60;99.90
19930;DHT22;10127;47.780;9.606;2023-04-19T09:25:56;13.60;99.90
19930;DHT22;10127;47.780;9.606;2023-04-19T09:28:24;13.40;99.90
19930;DHT22;10127;47.780;9.606;2023-04-19T09:30:50;13.50;99.90
19930;DHT22;10127;47.780;9.606;2023-04-19T09:33:46;13.40;99.90
19930;DHT22;10127;47.780;9.606;2023-04-19T09:36:33;13.50;99.90
19930;DHT22;10127;47.780;9.606;2023-04-19T09:38:59;13.30;99.90
19930;DHT22;10127;47.780;9.606;2023-04-19T09:41:25;13.40;99.90
19930;DHT22;10127;47.780;9.606;2023-04-19T09:43:51;13.40;99.90
19930;DHT22;10127;47.780;9.606;2023-04-19T09:49:23;13.70;99.90
19930;DHT22;10127;47.780;9.606;2023-04-19T09:51:55;14.00;99.90
19930;DHT22;10127;47.780;9.606;2023-04-19T09:54:23;13.80;99.90
19930;DHT22;10127;47.780;9.606;2023-04-19T09:56:50;13.90;99.90
19930;DHT22;10127;47.780;9.606;2023-04-19T09:59:16;14.10;99.90
19930;DHT22;10127;47.780;9.606;2023-04-19T10:01:46;14.10;99.90
19930;DHT22;10127;47.780;9.606;2023-04-19T10:04:14;13.80;99.90
19930;DHT22;10127;47.780;9.606;2023-04-19T10:06:53;13.70;99.90
19930;DHT22;10127;47.780;9.606;2023-04-19T10:09:20;13.50;99.90
19930;DHT22;10127;47.780;9.606;2023-04-19T10:11:51;13.00;99.90
19930;DHT22;10127;47.780;9.606;2023-04-19T10:14:21;13.10;99.90
19930;DHT22;10127;47.780;9.606;2023-04-19T10:16:48;13.30;99.90
19930;DHT22;10127;47.780;9.606;2023-04-19T10:19:16;13.20;99.90
19930;DHT22;10127;47.780;9.606;2023-04-19T10:21:43;13.00;99.90
19930;DHT22;10127;47.780;9.606;2023-04-19T10:24:12;13.00;99.90
19930;DHT22;10127;47.780;9.606;2023-04-19T10:27:06;13.00;99.90
19930;DHT22;10127;47.780;9.606;2023-04-19T10:32:17;13.30;99.90
19930;DHT22;10127;47.780;9.606;2023-04-19T10:34:44;13.70;99.90
19930;DHT22;10127;47.780;9.606;2023-04-19T10:37:12;13.40;99.90
19930;DHT22;10127;47.780;9.606;2023-04-19T10:39:39;13.80;99.90
19930;DHT22;10127;47.780;9.606;2023-04-19T10:42:06;14.10;99.90
19930;DHT22;10127;47.780;9.606;2023-04-19T10:44:31;14.30;99.90
19930;DHT22;10127;47.780;9.606;2023-04-19T10:47:00;14.60;99.90
19930;DHT22;10127;47.780;9.606;2023-04-19T10:49:29;14.80;99.90
19930;DHT22;10127;47.780;9.606;2023-04-19T10:51:55;14.40;99.90
19930;DHT22;10127;47.780;9.606;2023-04-19T10:54:28;14.50;99.90
19930;DHT22;10127;47.780;9.606;2023-04-19T10:57:03;14.50;99.90
19930;DHT22;10127;47.780;9.606;2023-04-19T10:59:37;14.50;99.90
19930;DHT22;10127;47.780;9.606;2023-04-19T11:02:25;14.70;99.90
19930;DHT22;10127;47.780;9.606;2023-04-19T11:07:18;15.10;99.90
19930;DHT22;10127;47.780;9.606;2023-04-19T11:09:46;14.70;99.90
19930;DHT22;10127;47.780;9.606;2023-04-19T11:12:13;15.20;99.90
19930;DHT22;10127;47.780;9.606;2023-04-19T11:17:19;15.50;99.90
19930;DHT22;10127;47.780;9.606;2023-04-19T11:19:59;15.10;99.90
19930;DHT22;10127;47.780;9.606;2023-04-19T11:24:51;14.60;99.90
19930;DHT22;10127;47.780;9.606;2023-04-19T11:27:16;14.60;99.90
19930;DHT22;10127;47.780;9.606;2023-04-19T11:29:42;14.90;99.90
19930;DHT22;10127;47.780;9.606;2023-04-19T11:32:08;14.60;99.90
19930;DHT22;10127;47.780;9.606;2023-04-19T11:34:37;14.30;99.90
19930;DHT22;10127;47.780;9.606;2023-04-19T11:37:03;14.30;99.90
19930;DHT22;10127;47.780;9.606;2023-04-19T11:39:29;14.70;99.90
19930;DHT22;10127;47.780;9.606;2023-04-19T11:41:54;14.70;99.90
19930;DHT22;10127;47.780;9.606;2023-04-19T11:44:20;14.80;99.90
19930;DHT22;10127;47.780;9.606;2023-04-19T11:47:00;14.90;99.90
19930;DHT22;10127;47.780;9.606;2023-04-19T11:49:31;14.90;99.90
19930;DHT22;10127;47.780;9.606;2023-04-19T11:55:19;14.60;99.90
19930;DHT22;10127;47.780;9.606;2023-04-19T11:57:47;14.90;99.90
19930;DHT22;10127;47.780;9.606;2023-04-19T12:00:13;15.30;99.90
19930;DHT22;10127;47.780;9.606;2023-04-19T12:02:42;15.00;99.90
19930;DHT22;10127;47.780;9.606;2023-04-19T12:05:12;15.20;99.90
19930;DHT22;10127;47.780;9.606;2023-04-19T12:10:27;15.10;99.90
19930;DHT22;10127;47.780;9.606;2023-04-19T12:12:53;15.30;99.90
19930;DHT22;10127;47.780;9.606;2023-04-19T12:15:18;15.40;99.90
19930;DHT22;10127;47.780;9.606;2023-04-19T12:18:01;15.40;99.90
19930;DHT22;10127;47.780;9.606;2023-04-19T12:20:35;15.70;99.90
19930;DHT22;10127;47.780;9.606;2023-04-19T12:23:01;15.60;99.90
19930;DHT22;10127;47.780;9.606;2023-04-19T12:25:32;15.60;99.90
19930;DHT22;10127;47.780;9.606;2023-04-19T12:27:59;15.60;99.90
19930;DHT22;10127;47.780;9.606;2023-04-19T12:30:25;15.70;99.90
19930;DHT22;10127;47.780;9.606;2023-04-19T12:32:53;15.60;99.90
19930;DHT22;10127;47.780;9.606;2023-04-19T12:35:20;15.80;99.90
19930;DHT22;10127;47.780;9.606;2023-04-19T12:37:47;15.70;99.90
19930;DHT22;10127;47.780;9.606;2023-04-19T12:40:13;15.40;99.90
19930;DHT22;10127;47.780;9.606;2023-04-19T12:42:38;15.30;99.90
19930;DHT22;10127;47.780;9.606;2023-04-19T12:45:04;15.50;99.90
19930;DHT22;10127;47.780;9.606;2023-04-19T12:47:30;15.50;99.90
19930;DHT22;10127;47.780;9.606;2023-04-19T12:49:56;15.60;99.90
19930;DHT22;10127;47.780;9.606;2023-04-19T12:52:22;15.90;99.90
19930;DHT22;10127;47.780;9.606;2023-04-19T12:54:48;15.70;99.90
19930;DHT22;10127;47.780;9.606;2023-04-19T12:57:13;15.70;99.90
19930;DHT22;10127;47.780;9.606;2023-04-19T12:59:39;15.40;99.90
19930;DHT22;10127;47.780;9.606;2023-04-19T13:02:05;15.50;99.90
19930;DHT22;10127;47.780;9.606;2023-04-19T13:04:31;15.80;99.90
19930;DHT22;10127;47.780;9.606;2023-04-19T13:06:57;16.10;99.90
19930;DHT22;10127;47.780;9.606;2023-04-19T13:09:23;15.80;99.90
19930;DHT22;10127;47.780;9.606;2023-04-19T13:11:48;16.00;99.90
19930;DHT22;10127;47.780;9.606;2023-04-19T13:14:15;16.30;99.90
19930;DHT22;10127;47.780;9.606;2023-04-19T13:16:40;16.50;99.90
19930;DHT22;10127;47.780;9.606;2023-04-19T13:19:06;16.50;99.90
19930;DHT22;10127;47.780;9.606;2023-04-19T13:21:32;16.80;99.90
19930;DHT22;10127;47.780;9.606;2023-04-19T13:23:58;16.90;99.90
19930;DHT22;10127;47.780;9.606;2023-04-19T13:26:23;17.00;99.90
19930;DHT22;10127;47.780;9.606;2023-04-19T13:28:49;16.90;99.90
19930;DHT22;10127;47.780;9.606;2023-04-19T13:31:15;16.90;99.90
19930;DHT22;10127;47.780;9.606;2023-04-19T13:33:40;16.80;99.90
19930;DHT22;10127;47.780;9.606;2023-04-19T13:36:06;16.80;99.90
19930;DHT22;10127;47.780;9.606;2023-04-19T13:38:32;16.70;99.90
19930;DHT22;10127;47.780;9.606;2023-04-19T13:40:58;16.60;99.90
19930;DHT22;10127;47.780;9.606;2023-04-19T13:43:24;16.60;99.90
19930;DHT22;10127;47.780;9.606;2023-04-19T13:45:49;16.90;99.90
19930;DHT22;10127;47.780;9.606;2023-04-19T13:48:15;17.20;99.90
19930;DHT22;10127;47.780;9.606;2023-04-19T13:50:41;17.20;99.90
19930;DHT22;10127;47.780;9.606;2023-04-19T13:53:06;16.70;99.90
19930;DHT22;10127;47.780;9.606;2023-04-19T13:55:32;16.80;99.90
19930;DHT22;10127;47.780;9.606;2023-04-19T13:57:58;17.10;99.90
19930;DHT22;10127;47.780;9.606;2023-04-19T14:00:23;17.00;99.90
19930;DHT22;10127;47.780;9.606;2023-04-19T14:02:49;16.80;99.90
19930;DHT22;10127;47.780;9.606;2023-04-19T14:05:15;16.60;99.90
19930;DHT22;10127;47.780;9.606;2023-04-19T14:07:40;16.90;99.90
19930;DHT22;10127;47.780;9.606;2023-04-19T14:10:07;16.90;99.90
19930;DHT22;10127;47.780;9.606;2023-04-19T14:12:33;16.40;99.90
19930;DHT22;10127;47.780;9.606;2023-04-19T14:14:59;16.50;99.90
19930;DHT22;10127;47.780;9.606;2023-04-19T14:17:24;16.60;99.90
19930;DHT22;10127;47.780;9.606;2023-04-19T14:19:50;16.80;99.90
19930;DHT22;10127;47.780;9.606;2023-04-19T14:22:16;17.00;99.90
19930;DHT22;10127;47.780;9.606;2023-04-19T14:24:41;17.30;99.90
19930;DHT22;10127;47.780;9.606;2023-04-19T14:27:07;17.60;99.90
19930;DHT22;10127;47.780;9.606;2023-04-19T14:29:33;17.60;99.90
19930;DHT22;10127;47.780;9.606;2023-04-19T14:31:58;17.60;99.90
19930;DHT22;10127;47.780;9.606;2023-04-19T14:34:24;17.10;99.90
19930;DHT22;10127;47.780;9.606;2023-04-19T14:36:50;16.80;99.90
19930;DHT22;10127;47.780;9.606;2023-04-19T14:39:15;16.60;99.90
19930;DHT22;10127;47.780;9.606;2023-04-19T14:41:41;16.30;99.90
19930;DHT22;10127;47.780;9.606;2023-04-19T14:44:06;16.00;99.90
19930;DHT22;10127;47.780;9.606;2023-04-19T14:46:32;15.70;99.90
19930;DHT22;10127;47.780;9.606;2023-04-19T14:48:58;15.50;99.90
19930;DHT22;10127;47.780;9.606;2023-04-19T14:51:31;15.10;99.90
19930;DHT22;10127;47.780;9.606;2023-04-19T14:53:57;14.60;99.90
19930;DHT22;10127;47.780;9.606;2023-04-19T14:56:23;14.20;99.90
19930;DHT22;10127;47.780;9.606;2023-04-19T14:58:48;13.90;99.90
19930;DHT22;10127;47.780;9.606;2023-04-19T15:01:14;13.60;99.90
19930;DHT22;10127;47.780;9.606;2023-04-19T15:03:40;13.60;99.90
19930;DHT22;10127;47.780;9.606;2023-04-19T15:06:08;13.50;99.90
19930;DHT22;10127;47.780;9.606;2023-04-19T15:08:34;13.30;99.90
19930;DHT22;10127;47.780;9.606;2023-04-19T15:11:00;13.10;99.90
19930;DHT22;10127;47.780;9.606;2023-04-19T15:13:25;12.90;99.90
19930;DHT22;10127;47.780;9.606;2023-04-19T15:15:51;12.80;99.90
19930;DHT22;10127;47.780;9.606;2023-04-19T15:18:17;12.60;99.90
19930;DHT22;10127;47.780;9.606;2023-04-19T15:20:49;12.50;99.90
19930;DHT22;10127;47.780;9.606;2023-04-19T15:23:16;12.40;99.90
19930;DHT22;10127;47.780;9.606;2023-04-19T15:25:41;12.30;99.90
19930;DHT22;10127;47.780;9.606;2023-04-19T15:28:07;12.10;99.90
19930;DHT22;10127;47.780;9.606;2023-04-19T15:30:33;11.90;99.90
19930;DHT22;10127;47.780;9.606;2023-04-19T15:32:58;11.90;99.90
19930;DHT22;10127;47.780;9.606;2023-04-19T15:35:24;11.80;99.90
19930;DHT22;10127;47.780;9.606;2023-04-19T15:37:49;11.80;99.90
19930;DHT22;10127;47.780;9.606;2023-04-19T15:40:15;11.80;99.90
19930;DHT22;10127;47.780;9.606;2023-04-19T15:42:41;11.70;99.90
19930;DHT22;10127;47.780;9.606;2023-04-19T15:45:07;11.70;99.90
19930;DHT22;10127;47.780;9.606;2023-04-19T15:47:33;11.80;99.90
19930;DHT22;10127;47.780;9.606;2023-04-19T15:49:59;11.70;99.90
19930;DHT22;10127;47.780;9.606;2023-04-19T15:52:25;11.60;99.90
19930;DHT22;10127;47.780;9.606;2023-04-19T15:54:51;11.50;99.90
19930;DHT22;10127;47.780;9.606;2023-04-19T15:57:17;11.50;99.90
19930;DHT22;10127;47.780;9.606;2023-04-19T15:59:42;11.40;99.90
19930;DHT22;10127;47.780;9.606;2023-04-19T16:02:08;11.40;99.90
19930;DHT22;10127;47.780;9.606;2023-04-19T16:04:34;11.30;99.90
19930;DHT22;10127;47.780;9.606;2023-04-19T16:06:59;11.30;99.90
19930;DHT22;10127;47.780;9.606;2023-04-19T16:09:25;11.20;99.90